createdAt,value
2024-03-05T00:00:18.189Z,68.01
2024-03-05T00:02:48.818Z,67.86
2024-03-05T00:05:20.051Z,68.22
2024-03-05T00:07:51.088Z,68.34
2024-03-05T00:10:22.800Z,68.06
2024-03-05T00:12:56.023Z,67.96
2024-03-05T00:15:28.428Z,68.16
2024-03-05T00:17:59.378Z,68.09
2024-03-05T00:20:30.065Z,68.04
2024-03-05T00:23:00.666Z,68.35
2024-03-05T00:25:31.589Z,68.08
2024-03-05T00:28:06.465Z,67.75
2024-03-05T00:30:37.058Z,68.05
2024-03-05T00:33:08.090Z,67.82
2024-03-05T00:35:38.760Z,67.76
2024-03-05T00:38:12.394Z,67.61
2024-03-05T00:40:49.032Z,67.61
2024-03-05T00:43:22.311Z,67.69
2024-03-05T00:45:53.725Z,67.49
2024-03-05T00:48:25.062Z,67.95
2024-03-05T00:50:55.792Z,68.26
2024-03-05T00:53:26.321Z,68.53
2024-03-05T00:55:57.133Z,68.42
2024-03-05T00:58:30.460Z,68.67
2024-03-05T01:01:02.881Z,68.31
2024-03-05T01:03:33.608Z,68.32
2024-03-05T01:06:05.183Z,68.32
2024-03-05T01:08:35.724Z,68.36
2024-03-05T01:11:06.491Z,68.10
2024-03-05T01:13:40.034Z,68.35
2024-03-05T01:16:11.003Z,68.43
2024-03-05T01:18:42.646Z,68.48
2024-03-05T01:21:13.287Z,68.74
2024-03-05T01:23:45.348Z,68.63
2024-03-05T01:26:15.909Z,69.02
2024-03-05T01:28:49.189Z,68.88
2024-03-05T01:31:20.139Z,69.08
2024-03-05T01:33:50.672Z,69.24
2024-03-05T01:36:21.409Z,69.37
2024-03-05T01:38:53.311Z,69.70
2024-03-05T01:41:24.421Z,69.41
2024-03-05T01:43:57.766Z,69.31
2024-03-05T01:46:30.062Z,69.42
2024-03-05T01:49:01.526Z,69.61
2024-03-05T01:51:32.353Z,69.76
2024-03-05T01:54:03.098Z,69.82
2024-03-05T01:56:33.616Z,69.78
2024-03-05T01:59:07.067Z,69.63
2024-03-05T02:01:38.817Z,70.03
2024-03-05T02:04:09.571Z,69.80
2024-03-05T02:06:40.827Z,69.99
2024-03-05T02:09:12.981Z,69.95
2024-03-05T02:11:52.820Z,69.91
2024-03-05T02:14:31.174Z,70.08
2024-03-05T02:17:04.697Z,70.33
2024-03-05T02:19:55.715Z,69.96
2024-03-05T02:22:29.052Z,70.41
2024-03-05T02:24:59.867Z,70.10
2024-03-05T02:27:34.896Z,69.96
2024-03-05T02:30:12.148Z,70.22
2024-03-05T02:32:44.761Z,70.09
2024-03-05T02:35:15.539Z,70.23
2024-03-05T02:37:49.397Z,70.34
2024-03-05T02:40:20.417Z,70.26
2024-03-05T02:42:51.120Z,71.03
2024-03-05T02:45:21.864Z,71.03
2024-03-05T02:47:52.564Z,71.45
2024-03-05T02:50:23.450Z,70.80
2024-03-05T02:52:58.651Z,71.10
2024-03-05T02:55:29.478Z,72.14
2024-03-05T02:57:59.946Z,71.50
2024-03-05T03:00:30.638Z,71.32
2024-03-05T03:03:01.277Z,71.29
2024-03-05T03:05:32.662Z,71.57
2024-03-05T03:08:05.977Z,71.90
2024-03-05T03:10:36.698Z,71.91
2024-03-05T03:13:08.021Z,71.60
2024-03-05T03:15:38.572Z,71.63
2024-03-05T03:18:09.683Z,71.73
2024-03-05T03:20:40.333Z,72.54
2024-03-05T03:23:13.633Z,72.09
2024-03-05T03:25:44.705Z,72.91
2024-03-05T03:28:15.713Z,72.90
2024-03-05T03:30:46.556Z,72.85
2024-03-05T03:33:20.159Z,72.61
2024-03-05T03:35:50.686Z,72.84
2024-03-05T03:38:25.165Z,73.27
2024-03-05T03:40:56.300Z,73.26
2024-03-05T03:43:27.250Z,72.82
2024-03-05T03:45:58.208Z,72.61
2024-03-05T03:48:28.808Z,72.44
2024-03-05T03:50:59.794Z,72.51
2024-03-05T03:53:32.999Z,72.62
2024-03-05T03:56:03.752Z,72.75
2024-03-05T03:58:34.980Z,72.45
2024-03-05T04:01:05.814Z,72.35
2024-03-05T04:03:36.415Z,72.22
2024-03-05T04:06:07.214Z,72.28
2024-03-05T04:08:40.407Z,72.23
2024-03-05T04:11:11.410Z,72.12
2024-03-05T04:13:45.199Z,72.03
2024-03-05T04:16:16.534Z,71.88
2024-03-05T04:18:47.325Z,71.81
2024-03-05T04:21:18.496Z,71.84
2024-03-05T04:23:52.000Z,71.57
2024-03-05T04:26:25.150Z,71.56
2024-03-05T04:28:56.485Z,71.37
2024-03-05T04:31:37.616Z,71.56
2024-03-05T04:34:14.618Z,71.34
2024-03-05T04:36:46.026Z,71.44
2024-03-05T04:39:19.860Z,71.64
2024-03-05T04:41:50.551Z,71.36
2024-03-05T04:44:21.165Z,71.55
2024-03-05T04:46:51.932Z,71.44
2024-03-05T04:49:22.600Z,71.51
2024-03-05T04:51:53.274Z,71.55
2024-03-05T04:54:26.508Z,71.83
2024-03-05T04:56:57.035Z,71.90
2024-03-05T04:59:27.987Z,71.95
2024-03-05T05:01:58.573Z,72.30
2024-03-05T05:04:29.271Z,72.03
2024-03-05T05:07:00.078Z,72.14
2024-03-05T05:09:33.332Z,72.19
2024-03-05T05:12:04.267Z,72.39
2024-03-05T05:14:38.661Z,72.54
2024-03-05T05:17:09.769Z,72.33
2024-03-05T05:19:42.472Z,72.20
2024-03-05T05:22:13.083Z,72.62
2024-03-05T05:24:46.415Z,72.89
2024-03-05T05:27:17.120Z,72.59
2024-03-05T05:29:48.827Z,72.83
2024-03-05T05:32:22.361Z,72.60
2024-03-05T05:34:52.977Z,72.67
2024-03-05T05:37:23.646Z,72.60
2024-03-05T05:39:56.910Z,72.78
2024-03-05T05:42:27.697Z,72.60
2024-03-05T05:44:58.395Z,72.93
2024-03-05T05:47:29.139Z,73.00
2024-03-05T05:50:00.649Z,73.25
2024-03-05T05:52:31.393Z,73.02
2024-03-05T05:55:07.475Z,73.01
2024-03-05T05:57:38.020Z,72.84
2024-03-05T06:00:13.793Z,72.69
2024-03-05T06:02:44.847Z,72.48
2024-03-05T06:05:15.516Z,72.46
2024-03-05T06:07:46.148Z,72.32
2024-03-05T06:10:23.662Z,71.96
2024-03-05T06:12:54.899Z,71.75
2024-03-05T06:15:29.351Z,70.25
2024-03-05T06:18:01.609Z,69.09
2024-03-05T06:20:33.017Z,68.56
2024-03-05T06:23:04.013Z,68.10
2024-03-05T06:25:37.555Z,67.87
2024-03-05T06:28:11.964Z,68.20
2024-03-05T06:30:47.181Z,67.71
2024-03-05T06:33:19.497Z,67.83
2024-03-05T06:35:50.121Z,67.86
2024-03-05T06:38:20.842Z,68.39
2024-03-05T06:40:54.103Z,67.98
2024-03-05T06:43:33.275Z,67.50
2024-03-05T06:46:04.479Z,67.47
2024-03-05T06:48:35.362Z,66.83
2024-03-05T06:51:17.734Z,66.65
2024-03-05T06:54:00.775Z,65.88
2024-03-05T06:56:45.905Z,65.39
2024-03-05T06:59:16.580Z,64.17
2024-03-05T07:01:47.235Z,63.09
2024-03-05T07:04:17.947Z,62.14
2024-03-05T07:06:48.556Z,60.78
2024-03-05T07:09:21.176Z,60.03
2024-03-05T07:11:55.454Z,58.53
2024-03-05T07:14:26.411Z,58.06
2024-03-05T07:16:56.998Z,56.86
2024-03-05T07:19:28.474Z,55.88
2024-03-05T07:21:59.048Z,55.60
2024-03-05T07:24:30.019Z,54.48
2024-03-05T07:27:08.710Z,53.78
2024-03-05T07:29:40.191Z,53.25
2024-03-05T07:32:11.861Z,53.00
2024-03-05T07:34:42.632Z,52.45
2024-03-05T07:37:13.324Z,51.67
2024-03-05T07:39:43.901Z,50.79
2024-03-05T07:42:18.017Z,50.63
2024-03-05T07:44:48.681Z,49.58
2024-03-05T07:47:19.353Z,48.74
2024-03-05T07:49:50.053Z,48.59
2024-03-05T07:52:20.760Z,47.77
2024-03-05T07:54:51.440Z,46.53
2024-03-05T07:57:24.711Z,44.70
2024-03-05T07:59:55.268Z,44.71
2024-03-05T08:02:26.790Z,44.54
2024-03-05T08:04:57.435Z,44.79
2024-03-05T08:07:28.170Z,44.79
2024-03-05T08:09:58.890Z,44.28
2024-03-05T08:12:32.615Z,43.32
2024-03-05T08:15:04.629Z,44.12
2024-03-05T08:17:37.176Z,44.85
2024-03-05T08:20:08.745Z,43.73
2024-03-05T08:22:39.847Z,44.09
2024-03-05T08:25:14.373Z,44.34
2024-03-05T08:27:48.741Z,44.00
2024-03-05T08:30:21.446Z,41.82
2024-03-05T08:32:54.081Z,42.41
2024-03-05T08:35:25.363Z,42.96
2024-03-05T08:37:56.833Z,42.38
2024-03-05T08:40:28.129Z,42.56
2024-03-05T08:43:05.266Z,42.27
2024-03-05T08:45:37.848Z,42.50
2024-03-05T08:48:09.115Z,42.46
2024-03-05T08:50:41.173Z,42.35
2024-03-05T08:53:11.944Z,42.91
2024-03-05T08:55:42.734Z,43.80
2024-03-05T08:58:16.067Z,44.01
2024-03-05T09:00:46.706Z,44.29
2024-03-05T09:03:17.258Z,44.50
2024-03-05T09:05:48.633Z,44.96
2024-03-05T09:08:19.548Z,44.89
2024-03-05T09:10:50.243Z,45.08
2024-03-05T09:13:23.571Z,44.64
2024-03-05T09:15:55.015Z,44.44
2024-03-05T09:18:25.641Z,45.00
2024-03-05T09:20:56.288Z,45.07
2024-03-05T09:23:26.854Z,44.72
2024-03-05T09:25:57.616Z,45.01
2024-03-05T09:28:33.606Z,45.03
2024-03-05T09:31:04.302Z,45.18
2024-03-05T09:33:35.134Z,44.68
2024-03-05T09:36:08.126Z,45.09
2024-03-05T09:38:38.721Z,44.22
2024-03-05T09:41:10.339Z,44.70
2024-03-05T09:43:46.851Z,44.99
2024-03-05T09:46:19.555Z,45.17
2024-03-05T09:48:50.625Z,45.89
2024-03-05T09:51:26.884Z,46.26
2024-03-05T09:53:58.335Z,46.33
2024-03-05T09:56:29.156Z,46.73
2024-03-05T09:59:08.579Z,46.20
2024-03-05T10:01:40.769Z,46.08
2024-03-05T10:04:17.459Z,46.11
2024-03-05T10:06:49.876Z,47.05
2024-03-05T10:09:23.107Z,46.52
2024-03-05T10:11:55.676Z,46.81
2024-03-05T10:14:32.814Z,46.82
2024-03-05T10:17:04.934Z,47.14
2024-03-05T10:19:46.112Z,47.00
2024-03-05T10:22:16.749Z,47.48
2024-03-05T10:24:47.301Z,47.78
2024-03-05T10:27:30.888Z,47.96
2024-03-05T10:30:05.747Z,48.15
2024-03-05T10:32:36.407Z,48.24
2024-03-05T10:35:07.895Z,48.25
2024-03-05T10:37:38.573Z,48.72
2024-03-05T10:40:11.881Z,48.58
2024-03-05T10:42:44.381Z,49.20
2024-03-05T10:48:41.031Z,49.17
2024-03-05T10:51:14.482Z,49.15
2024-03-05T10:53:45.592Z,49.21
2024-03-05T10:56:16.384Z,49.43
2024-03-05T10:59:15.545Z,49.47
2024-03-05T11:01:48.173Z,49.76
2024-03-05T11:04:25.189Z,49.86
2024-03-05T11:06:59.383Z,50.06
2024-03-05T11:09:30.693Z,50.28
2024-03-05T11:12:08.016Z,50.58
2024-03-05T11:14:40.514Z,50.42
2024-03-05T11:17:13.978Z,50.96
2024-03-05T11:19:49.830Z,51.14
2024-03-05T11:22:26.391Z,51.32
2024-03-05T11:25:01.043Z,51.31
2024-03-05T11:27:35.366Z,51.50
2024-03-05T11:30:11.111Z,51.88
2024-03-05T11:32:42.616Z,51.63
2024-03-05T11:35:17.339Z,51.74
2024-03-05T11:37:55.144Z,51.96
2024-03-05T11:40:35.981Z,52.04
2024-03-05T11:43:06.772Z,52.31
2024-03-05T11:45:47.580Z,52.60
2024-03-05T11:48:20.059Z,52.81
2024-03-05T11:50:57.914Z,53.14
2024-03-05T11:53:28.538Z,53.43
2024-03-05T11:56:09.949Z,53.79
2024-03-05T11:58:42.382Z,54.03
2024-03-05T12:01:13.288Z,53.80
2024-03-05T12:03:43.910Z,53.80
2024-03-05T12:06:19.190Z,54.08
2024-03-05T12:08:51.614Z,53.62
2024-03-05T12:11:22.250Z,53.34
2024-03-05T12:13:52.947Z,53.26
2024-03-05T12:16:24.705Z,52.97
2024-03-05T12:19:02.930Z,53.07
2024-03-05T12:21:38.022Z,53.07
2024-03-05T12:24:10.747Z,53.00
2024-03-05T12:26:41.466Z,52.94
2024-03-05T12:29:12.251Z,53.03
2024-03-05T12:31:42.983Z,53.25
2024-03-05T12:34:14.529Z,53.12
2024-03-05T12:36:48.332Z,53.36
2024-03-05T12:39:21.729Z,53.42
2024-03-05T12:42:06.941Z,53.57
2024-03-05T12:44:38.626Z,53.52
2024-03-05T12:47:14.741Z,53.55
2024-03-05T12:49:48.489Z,53.61
2024-03-05T12:52:25.662Z,53.66
2024-03-05T12:55:01.439Z,53.70
2024-03-05T12:57:34.398Z,54.00
2024-03-05T13:00:07.338Z,54.23
2024-03-05T13:02:38.112Z,54.79
2024-03-05T13:05:09.945Z,55.10
2024-03-05T13:07:43.374Z,55.29
2024-03-05T13:10:14.117Z,55.82
2024-03-05T13:12:45.195Z,55.97
2024-03-05T13:15:15.907Z,56.29
2024-03-05T13:17:46.651Z,56.62
2024-03-05T13:20:22.684Z,56.63
2024-03-05T13:22:58.040Z,56.75
2024-03-05T13:25:30.316Z,57.75
2024-03-05T13:28:01.977Z,56.86
2024-03-05T13:30:33.118Z,57.27
2024-03-05T13:33:06.437Z,57.74
2024-03-05T13:35:37.138Z,58.00
2024-03-05T13:38:11.849Z,58.04
2024-03-05T13:40:42.708Z,58.17
2024-03-05T13:43:13.516Z,58.71
2024-03-05T13:45:44.155Z,59.09
2024-03-05T13:48:14.872Z,59.75
2024-03-05T13:50:53.709Z,60.28
2024-03-05T13:53:28.226Z,60.65
2024-03-05T13:55:59.174Z,61.26
2024-03-05T13:58:29.882Z,61.54
2024-03-05T14:01:01.790Z,62.11
2024-03-05T14:03:35.233Z,62.58
2024-03-05T14:06:05.867Z,63.32
2024-03-05T14:08:39.354Z,63.96
2024-03-05T14:11:09.947Z,64.24
2024-03-05T14:13:40.638Z,64.50
2024-03-05T14:16:14.542Z,65.13
2024-03-05T14:18:45.308Z,65.43
2024-03-05T14:21:15.953Z,65.64
2024-03-05T14:23:49.167Z,66.15
2024-03-05T14:26:19.706Z,65.97
2024-03-05T14:28:50.247Z,65.94
2024-03-05T14:31:20.794Z,66.38
2024-03-05T14:33:52.539Z,67.20
2024-03-05T14:36:23.319Z,67.61
2024-03-05T14:38:56.584Z,68.44
2024-03-05T14:41:27.120Z,68.91
2024-03-05T14:43:57.738Z,68.72
2024-03-05T14:46:29.228Z,68.83
2024-03-05T14:48:59.802Z,68.90
2024-03-05T14:51:30.550Z,69.02
2024-03-05T14:54:03.742Z,69.01
2024-03-05T14:56:35.735Z,69.31
2024-03-05T14:59:06.454Z,69.70
2024-03-05T15:01:38.795Z,69.94
2024-03-05T15:04:09.393Z,70.35
2024-03-05T15:06:40.468Z,70.40
2024-03-05T15:09:13.694Z,70.86
2024-03-05T15:11:46.638Z,71.12
2024-03-05T15:14:17.360Z,71.27
2024-03-05T15:16:47.971Z,71.53
2024-03-05T15:19:19.148Z,71.55
2024-03-05T15:21:49.793Z,71.78
2024-03-05T15:24:24.509Z,71.94
2024-03-05T15:27:01.768Z,71.92
2024-03-05T15:29:37.726Z,71.87
2024-03-05T15:32:09.315Z,72.30
2024-03-05T15:34:39.968Z,72.24
2024-03-05T15:37:10.600Z,72.24
2024-03-05T15:39:43.791Z,72.82
2024-03-05T15:42:15.346Z,72.55
2024-03-05T15:44:45.958Z,72.75
2024-03-05T15:47:16.619Z,72.59
2024-03-05T15:49:47.218Z,72.98
2024-03-05T15:52:18.700Z,72.78
2024-03-05T15:54:51.887Z,73.06
2024-03-05T15:57:26.298Z,72.82
2024-03-05T16:00:08.649Z,72.85
2024-03-05T16:02:45.746Z,72.48
2024-03-05T16:05:25.083Z,72.42
2024-03-05T16:08:02.107Z,72.72
2024-03-05T16:10:41.449Z,72.71
2024-03-05T16:13:18.822Z,72.82
2024-03-05T16:15:49.876Z,73.05
2024-03-05T16:18:23.287Z,73.12
2024-03-05T16:20:54.428Z,73.14
2024-03-05T16:23:26.919Z,73.08
2024-03-05T16:26:00.180Z,73.43
2024-03-05T16:28:31.006Z,73.55
2024-03-05T16:31:01.871Z,73.97
2024-03-05T16:33:32.609Z,74.06
2024-03-05T16:36:04.481Z,74.20
2024-03-05T16:38:35.565Z,74.05
2024-03-05T16:41:09.090Z,73.91
2024-03-05T16:43:39.888Z,73.74
2024-03-05T16:46:10.557Z,73.97
2024-03-05T16:48:41.276Z,73.93
2024-03-05T16:51:11.948Z,73.44
2024-03-05T16:53:42.514Z,73.78
2024-03-05T16:56:16.306Z,74.20
2024-03-05T16:58:47.018Z,74.29
2024-03-05T17:01:18.693Z,74.28
2024-03-05T17:03:51.912Z,74.45
2024-03-05T17:06:23.772Z,74.67
2024-03-05T17:08:54.337Z,75.06
2024-03-05T17:11:27.780Z,75.29
2024-03-05T17:13:58.502Z,75.51
2024-03-05T17:16:29.608Z,75.17
2024-03-05T17:19:00.268Z,75.08
2024-03-05T17:21:31.396Z,75.56
2024-03-05T17:24:03.015Z,75.84
2024-03-05T17:26:36.290Z,76.23
2024-03-05T17:29:12.362Z,72.85
2024-03-05T17:31:43.169Z,75.22
2024-03-05T17:34:13.883Z,78.04
2024-03-05T17:36:44.719Z,80.22
2024-03-05T17:39:15.712Z,84.23
2024-03-05T17:41:49.988Z,87.18
2024-03-05T17:44:20.705Z,89.66
2024-03-05T17:46:52.042Z,90.12
2024-03-05T17:49:23.461Z,93.04
2024-03-05T17:51:54.590Z,93.31
2024-03-05T17:54:25.931Z,92.13
2024-03-05T17:56:59.943Z,91.16
2024-03-05T17:59:30.633Z,92.06
2024-03-05T18:02:01.922Z,92.80
2024-03-05T18:04:33.721Z,96.60
2024-03-05T18:07:06.534Z,95.60
2024-03-05T18:09:37.971Z,93.48
2024-03-05T18:12:16.012Z,92.65
2024-03-05T18:14:47.452Z,93.37
2024-03-05T18:17:18.212Z,95.90
2024-03-05T18:19:49.334Z,97.45
2024-03-05T18:22:20.247Z,94.50
2024-03-05T18:24:51.210Z,93.47
2024-03-05T18:27:24.668Z,94.08
2024-03-05T18:29:57.353Z,98.92
2024-03-05T18:32:28.272Z,99.73
2024-03-05T18:34:58.948Z,96.53
2024-03-05T18:37:29.602Z,94.65
2024-03-05T18:40:00.255Z,95.25
2024-03-05T18:42:33.506Z,99.55
2024-03-05T18:45:06.960Z,97.98
2024-03-05T18:47:39.841Z,94.96
2024-03-05T18:50:14.596Z,95.14
2024-03-05T18:52:45.873Z,99.71
2024-03-05T18:55:17.427Z,100.00
2024-03-05T18:57:51.343Z,96.47
2024-03-05T19:00:22.210Z,94.47
2024-03-05T19:02:53.296Z,94.91
2024-03-05T19:05:23.962Z,98.86
2024-03-05T19:07:55.191Z,100.00
2024-03-05T19:10:26.184Z,97.56
2024-03-05T19:13:00.168Z,96.81
2024-03-05T19:15:31.034Z,99.15
2024-03-05T19:18:01.843Z,98.27
2024-03-05T19:20:32.620Z,95.13
2024-03-05T19:23:03.363Z,95.13
2024-03-05T19:25:33.999Z,96.33
2024-03-05T19:28:07.673Z,99.55
2024-03-05T19:30:38.239Z,100.00
2024-03-05T19:33:09.594Z,97.17
2024-03-05T19:35:40.548Z,100.00
2024-03-05T19:38:11.259Z,100.00
2024-03-05T19:40:42.019Z,98.75
2024-03-05T19:43:15.246Z,97.21
2024-03-05T19:45:46.679Z,96.22
2024-03-05T19:48:18.745Z,97.10
2024-03-05T19:50:49.546Z,100.00
2024-03-05T19:53:20.406Z,100.00
2024-03-05T19:55:51.390Z,99.06
2024-03-05T19:58:24.669Z,97.80
2024-03-05T20:00:55.410Z,100.00
2024-03-05T20:03:26.086Z,100.00
2024-03-05T20:05:57.170Z,100.00
2024-03-05T20:08:29.995Z,98.28
2024-03-05T20:11:00.748Z,98.54
2024-03-05T20:13:35.018Z,100.00
2024-03-05T20:16:05.636Z,100.00
2024-03-05T20:18:36.384Z,100.00
2024-03-05T20:21:10.081Z,98.53
2024-03-05T20:23:43.038Z,98.57
2024-03-05T20:26:15.119Z,100.00
2024-03-05T20:28:49.985Z,100.00
2024-03-05T20:31:23.110Z,100.00
2024-03-05T20:33:53.750Z,99.36
2024-03-05T20:36:24.848Z,99.48
2024-03-05T20:38:56.931Z,100.00
2024-03-05T20:41:27.609Z,100.00
2024-03-05T20:44:01.357Z,100.00
2024-03-05T20:46:34.010Z,99.55
2024-03-05T20:49:05.326Z,100.00
2024-03-05T20:51:36.019Z,100.00
2024-03-05T20:54:06.932Z,100.00
2024-03-05T20:56:37.470Z,99.60
2024-03-05T20:59:10.863Z,99.44
2024-03-05T21:01:45.859Z,100.00
2024-03-05T21:04:16.710Z,100.00
2024-03-05T21:06:47.307Z,100.00
2024-03-05T21:09:17.997Z,100.00
2024-03-05T21:11:49.443Z,100.00
2024-03-05T21:14:22.747Z,100.00
2024-03-05T21:16:53.426Z,100.00
2024-03-05T21:19:27.793Z,100.00
2024-03-05T21:21:58.630Z,100.00
2024-03-05T21:24:30.602Z,100.00
2024-03-05T21:27:16.195Z,100.00
2024-03-05T21:29:54.187Z,100.00
2024-03-05T21:32:24.928Z,100.00
2024-03-05T21:34:55.715Z,100.00
2024-03-05T21:37:26.379Z,100.00
2024-03-05T21:39:57.236Z,100.00
2024-03-05T21:42:28.137Z,100.00
2024-03-05T21:44:58.861Z,100.00
2024-03-05T21:47:29.566Z,100.00
2024-03-05T21:50:01.507Z,100.00
2024-03-05T21:52:35.140Z,100.00
2024-03-05T21:55:06.433Z,100.00
2024-03-05T21:57:40.308Z,100.00
2024-03-05T22:00:15.960Z,100.00
2024-03-05T22:02:46.755Z,100.00
2024-03-05T22:05:17.540Z,100.00
2024-03-05T22:07:48.308Z,100.00
2024-03-05T22:10:18.912Z,100.00
2024-03-05T22:12:49.559Z,100.00
2024-03-05T22:15:22.716Z,100.00
2024-03-05T22:17:54.071Z,100.00
2024-03-05T22:20:25.331Z,100.00
2024-03-05T22:22:55.992Z,100.00
2024-03-05T22:25:26.633Z,100.00
2024-03-05T22:27:57.345Z,100.00
2024-03-05T22:30:30.670Z,100.00
2024-03-05T22:33:02.014Z,100.00
2024-03-05T22:35:32.645Z,100.00
2024-03-05T22:38:03.336Z,100.00
2024-03-05T22:40:33.990Z,100.00
2024-03-05T22:43:05.563Z,100.00
2024-03-05T22:45:39.807Z,100.00
2024-03-05T22:48:11.156Z,100.00
2024-03-05T22:50:43.145Z,100.00
2024-03-05T22:53:14.841Z,100.00
2024-03-05T22:55:45.463Z,100.00
2024-03-05T22:58:16.220Z,100.00
2024-03-05T23:00:51.902Z,100.00
2024-03-05T23:03:22.956Z,100.00
2024-03-05T23:05:53.567Z,100.00
2024-03-05T23:08:24.275Z,100.00
2024-03-05T23:10:56.002Z,100.00
2024-03-05T23:13:26.728Z,100.00
2024-03-05T23:16:00.265Z,100.00
2024-03-05T23:18:30.885Z,100.00
2024-03-05T23:21:01.581Z,100.00
2024-03-05T23:23:32.331Z,100.00
2024-03-05T23:26:04.162Z,100.00
2024-03-05T23:28:34.893Z,100.00
2024-03-05T23:31:08.364Z,100.00
2024-03-05T23:33:39.254Z,100.00
2024-03-05T23:36:10.267Z,100.00
2024-03-05T23:38:41.199Z,100.00
2024-03-05T23:41:24.597Z,100.00
2024-03-05T23:44:02.196Z,100.00
2024-03-05T23:46:36.595Z,100.00
2024-03-05T23:49:07.219Z,100.00
2024-03-05T23:51:37.842Z,100.00
2024-03-05T23:54:08.579Z,100.00
2024-03-05T23:56:39.446Z,100.00
2024-03-05T23:59:10.153Z,100.00
